createdAt,value
2022-12-11T00:00:09.926Z,38.98
2022-12-11T00:01:10.023Z,38.98
2022-12-11T00:02:10.010Z,38.98
2022-12-11T00:03:15.388Z,38.88
2022-12-11T00:04:09.856Z,38.88
2022-12-11T00:05:10.201Z,38.78
2022-12-11T00:06:09.940Z,38.88
2022-12-11T00:07:09.827Z,38.98
2022-12-11T00:08:09.895Z,38.88
2022-12-11T00:09:09.914Z,38.88
2022-12-11T00:10:09.936Z,38.98
2022-12-11T00:11:09.931Z,38.98
2022-12-11T00:12:09.818Z,38.88
2022-12-11T00:13:09.749Z,39.07
2022-12-11T00:14:09.811Z,38.98
2022-12-11T00:15:10.222Z,38.98
2022-12-11T00:16:09.849Z,38.90
2022-12-11T00:17:09.778Z,38.88
2022-12-11T00:18:09.757Z,38.88
2022-12-11T00:19:09.707Z,38.88
2022-12-11T00:20:09.710Z,38.88
2022-12-11T00:21:09.697Z,38.98
2022-12-11T00:22:09.797Z,38.88
2022-12-11T00:23:09.668Z,38.88
2022-12-11T00:24:09.750Z,38.88
2022-12-11T00:25:10.077Z,38.88
2022-12-11T00:26:09.724Z,38.88
2022-12-11T00:27:09.600Z,38.78
2022-12-11T00:28:09.634Z,38.98
2022-12-11T00:29:09.622Z,38.78
2022-12-11T00:30:09.621Z,38.78
2022-12-11T00:31:09.708Z,38.78
2022-12-11T00:32:09.785Z,38.78
2022-12-11T00:33:09.532Z,38.78
2022-12-11T00:34:09.685Z,38.78
2022-12-11T00:35:09.941Z,38.78
2022-12-11T00:36:09.628Z,38.68
2022-12-11T00:37:09.579Z,38.78
2022-12-11T00:38:09.548Z,38.88
2022-12-11T00:39:09.470Z,38.78
2022-12-11T00:40:09.491Z,38.88
2022-12-11T00:41:09.492Z,38.88
2022-12-11T00:42:09.486Z,38.78
2022-12-11T00:43:09.467Z,38.78
2022-12-11T00:44:09.523Z,38.78
2022-12-11T00:45:09.674Z,38.68
2022-12-11T00:46:09.521Z,38.68
2022-12-11T00:47:09.900Z,38.78
2022-12-11T00:48:09.410Z,38.78
2022-12-11T00:49:09.391Z,38.68
2022-12-11T00:50:09.365Z,38.78
2022-12-11T00:51:09.342Z,38.78
2022-12-11T00:52:09.444Z,38.78
2022-12-11T00:53:09.353Z,38.68
2022-12-11T00:54:09.402Z,38.88
2022-12-11T00:55:09.727Z,38.78
2022-12-11T00:56:09.348Z,38.68
2022-12-11T00:57:09.277Z,38.88
2022-12-11T00:58:09.290Z,38.78
2022-12-11T00:59:09.277Z,38.78
2022-12-11T01:00:09.276Z,38.78
2022-12-11T01:01:09.318Z,38.78
2022-12-11T01:02:09.249Z,38.78
2022-12-11T01:03:09.268Z,38.68
2022-12-11T01:04:09.298Z,38.68
2022-12-11T01:05:09.572Z,38.68
2022-12-11T01:06:09.229Z,38.68
2022-12-11T01:07:09.174Z,38.68
2022-12-11T01:08:09.246Z,38.68
2022-12-11T01:09:09.197Z,38.68
2022-12-11T01:10:09.222Z,38.68
2022-12-11T01:11:09.151Z,38.68
2022-12-11T01:12:09.168Z,38.58
2022-12-11T01:13:09.125Z,38.68
2022-12-11T01:14:09.155Z,38.58
2022-12-11T01:15:09.492Z,38.68
2022-12-11T01:16:09.100Z,38.68
2022-12-11T01:17:09.181Z,38.68
2022-12-11T01:18:09.087Z,38.68
2022-12-11T01:19:09.071Z,38.68
2022-12-11T01:20:09.146Z,38.68
2022-12-11T01:21:09.030Z,38.58
2022-12-11T01:22:09.048Z,38.58
2022-12-11T01:23:09.023Z,38.58
2022-12-11T01:24:09.038Z,38.68
2022-12-11T01:25:10.245Z,38.68
2022-12-11T01:26:09.028Z,38.58
2022-12-11T01:27:08.964Z,38.58
2022-12-11T01:28:08.966Z,38.58
2022-12-11T01:29:08.959Z,38.58
2022-12-11T01:30:08.968Z,38.58
2022-12-11T01:31:09.008Z,38.58
2022-12-11T01:32:08.977Z,38.58
2022-12-11T01:33:08.893Z,38.58
2022-12-11T01:34:09.002Z,38.48
2022-12-11T01:35:09.368Z,38.58
2022-12-11T01:36:08.880Z,38.48
2022-12-11T01:37:08.866Z,38.58
2022-12-11T01:38:08.893Z,38.68
2022-12-11T01:39:08.835Z,38.58
2022-12-11T01:40:08.839Z,38.58
2022-12-11T01:41:08.839Z,38.58
2022-12-11T01:42:08.827Z,38.58
2022-12-11T01:43:08.813Z,38.58
2022-12-11T01:44:08.870Z,38.58
2022-12-11T01:45:09.149Z,38.58
2022-12-11T01:46:08.994Z,38.58
2022-12-11T01:47:08.740Z,38.58
2022-12-11T01:48:08.882Z,38.48
2022-12-11T01:49:08.748Z,38.48
2022-12-11T01:50:08.747Z,38.58
2022-12-11T01:51:08.739Z,38.48
2022-12-11T01:52:08.741Z,38.58
2022-12-11T01:53:08.685Z,38.48
2022-12-11T01:54:08.933Z,38.48
2022-12-11T01:55:09.017Z,38.48
2022-12-11T01:56:08.721Z,38.48
2022-12-11T01:57:08.628Z,38.48
2022-12-11T01:58:08.803Z,38.38
2022-12-11T01:59:08.615Z,38.48
2022-12-11T02:00:08.646Z,38.38
2022-12-11T02:01:08.672Z,38.48
2022-12-11T02:02:08.693Z,38.48
2022-12-11T02:03:08.624Z,38.58
2022-12-11T02:04:08.606Z,38.48
2022-12-11T02:05:08.980Z,38.48
2022-12-11T02:06:08.601Z,38.48
2022-12-11T02:07:08.536Z,38.48
2022-12-11T02:08:08.611Z,38.38
2022-12-11T02:09:08.545Z,38.38
2022-12-11T02:10:08.502Z,38.38
2022-12-11T02:11:08.550Z,38.48
2022-12-11T02:12:08.508Z,38.38
2022-12-11T02:13:08.481Z,38.48
2022-12-11T02:14:08.536Z,38.58
2022-12-11T02:15:08.936Z,38.48
2022-12-11T02:16:08.520Z,38.48
2022-12-11T02:17:08.494Z,38.58
2022-12-11T02:18:08.417Z,38.48
2022-12-11T02:19:08.550Z,38.48
2022-12-11T02:20:08.419Z,38.48
2022-12-11T02:21:08.734Z,38.48
2022-12-11T02:22:08.387Z,38.48
2022-12-11T02:23:08.397Z,38.48
2022-12-11T02:24:09.413Z,38.48
2022-12-11T02:25:08.847Z,38.48
2022-12-11T02:26:08.349Z,38.58
2022-12-11T02:27:08.332Z,38.38
2022-12-11T02:28:08.294Z,38.48
2022-12-11T02:29:08.353Z,38.48
2022-12-11T02:30:08.282Z,38.48
2022-12-11T02:31:08.389Z,38.48
2022-12-11T02:32:08.298Z,38.48
2022-12-11T02:33:08.266Z,38.48
2022-12-11T02:34:08.258Z,38.48
2022-12-11T02:35:08.716Z,38.48
2022-12-11T02:36:08.213Z,38.58
2022-12-11T02:37:08.511Z,38.58
2022-12-11T02:38:08.199Z,38.48
2022-12-11T02:39:08.231Z,38.48
2022-12-11T02:40:08.205Z,38.58
2022-12-11T02:41:08.910Z,38.58
2022-12-11T02:42:08.156Z,38.58
2022-12-11T02:43:08.183Z,38.58
2022-12-11T02:44:08.924Z,38.68
2022-12-11T02:45:08.333Z,38.58
2022-12-11T02:46:08.501Z,38.48
2022-12-11T02:47:08.157Z,38.48
2022-12-11T02:48:08.155Z,38.48
2022-12-11T02:49:08.129Z,38.48
2022-12-11T02:50:08.158Z,38.48
2022-12-11T02:51:08.116Z,38.48
2022-12-11T02:52:08.061Z,38.48
2022-12-11T02:53:08.048Z,38.48
2022-12-11T02:54:08.034Z,38.58
2022-12-11T02:55:08.277Z,38.58
2022-12-11T02:56:07.992Z,38.68
2022-12-11T02:57:08.062Z,38.58
2022-12-11T02:58:08.086Z,38.58
2022-12-11T02:59:07.992Z,38.58
2022-12-11T03:00:07.965Z,38.48
2022-12-11T03:01:08.056Z,38.58
2022-12-11T03:02:07.968Z,38.58
2022-12-11T03:03:07.966Z,38.58
2022-12-11T03:04:07.929Z,38.48
2022-12-11T03:05:08.146Z,38.58
2022-12-11T03:06:07.961Z,38.48
2022-12-11T03:07:07.906Z,38.58
2022-12-11T03:08:07.931Z,38.48
2022-12-11T03:09:07.973Z,38.48
2022-12-11T03:10:07.850Z,38.48
2022-12-11T03:11:07.916Z,38.58
2022-12-11T03:12:08.168Z,38.48
2022-12-11T03:13:07.834Z,38.58
2022-12-11T03:14:07.822Z,38.48
2022-12-11T03:15:08.020Z,38.58
2022-12-11T03:16:07.825Z,38.48
2022-12-11T03:17:07.847Z,38.58
2022-12-11T03:18:07.785Z,38.48
2022-12-11T03:19:07.799Z,38.48
2022-12-11T03:20:07.759Z,38.58
2022-12-11T03:21:07.801Z,38.48
2022-12-11T03:22:07.978Z,38.58
2022-12-11T03:23:07.735Z,38.48
2022-12-11T03:24:07.748Z,38.58
2022-12-11T03:25:08.033Z,38.48
2022-12-11T03:26:07.735Z,38.48
2022-12-11T03:27:11.168Z,38.58
2022-12-11T03:28:07.685Z,38.58
2022-12-11T03:29:07.677Z,38.58
2022-12-11T03:30:07.627Z,38.58
2022-12-11T03:31:07.738Z,38.58
2022-12-11T03:32:07.686Z,38.58
2022-12-11T03:33:07.619Z,38.48
2022-12-11T03:34:07.626Z,38.48
2022-12-11T03:35:07.614Z,38.48
2022-12-11T03:36:07.557Z,38.58
2022-12-11T03:37:07.596Z,38.58
2022-12-11T03:38:07.670Z,38.58
2022-12-11T03:39:07.601Z,38.48
2022-12-11T03:40:07.553Z,38.58
2022-12-11T03:41:07.534Z,38.48
2022-12-11T03:42:07.602Z,38.58
2022-12-11T03:43:07.539Z,38.58
2022-12-11T03:44:07.531Z,38.48
2022-12-11T03:45:07.535Z,38.58
2022-12-11T03:46:07.583Z,38.48
2022-12-11T03:47:07.493Z,38.48
2022-12-11T03:48:07.452Z,38.48
2022-12-11T03:49:07.521Z,38.48
2022-12-11T03:50:07.413Z,38.58
2022-12-11T03:51:07.453Z,38.58
2022-12-11T03:52:07.417Z,38.48
2022-12-11T03:53:07.399Z,38.58
2022-12-11T03:54:07.405Z,38.48
2022-12-11T03:55:07.557Z,38.48
2022-12-11T03:56:07.353Z,38.48
2022-12-11T03:57:07.394Z,38.50
2022-12-11T03:58:07.873Z,38.48
2022-12-11T03:59:07.368Z,38.48
2022-12-11T04:00:07.335Z,38.48
2022-12-11T04:01:07.324Z,38.48
2022-12-11T04:02:07.283Z,38.38
2022-12-11T04:03:12.993Z,38.48
2022-12-11T04:04:07.320Z,38.38
2022-12-11T04:05:07.564Z,38.48
2022-12-11T04:06:07.578Z,38.48
2022-12-11T04:07:07.364Z,38.38
2022-12-11T04:08:07.289Z,38.48
2022-12-11T04:09:07.255Z,38.50
2022-12-11T04:10:07.188Z,38.50
2022-12-11T04:11:07.278Z,38.38
2022-12-11T04:12:07.199Z,38.60
2022-12-11T04:13:07.185Z,38.48
2022-12-11T04:14:07.211Z,38.60
2022-12-11T04:15:07.239Z,38.50
2022-12-11T04:16:07.165Z,38.50
2022-12-11T04:17:07.173Z,38.60
2022-12-11T04:18:07.099Z,38.50
2022-12-11T04:19:07.160Z,38.50
2022-12-11T04:20:07.110Z,38.50
2022-12-11T04:21:07.133Z,38.60
2022-12-11T04:22:07.100Z,38.50
2022-12-11T04:23:07.131Z,38.50
2022-12-11T04:24:07.053Z,38.60
2022-12-11T04:25:07.085Z,38.48
2022-12-11T04:26:07.019Z,38.50
2022-12-11T04:27:07.063Z,38.50
2022-12-11T04:28:07.021Z,38.40
2022-12-11T04:29:07.005Z,38.50
2022-12-11T04:30:07.042Z,38.50
2022-12-11T04:31:07.051Z,38.50
2022-12-11T04:32:06.954Z,38.60
2022-12-11T04:33:06.998Z,38.60
2022-12-11T04:34:06.951Z,38.50
2022-12-11T04:35:06.950Z,38.50
2022-12-11T04:36:06.913Z,38.40
2022-12-11T04:37:07.140Z,38.40
2022-12-11T04:38:06.890Z,38.50
2022-12-11T04:39:06.935Z,38.40
2022-12-11T04:40:06.955Z,38.40
2022-12-11T04:41:06.918Z,38.60
2022-12-11T04:42:06.970Z,38.50
2022-12-11T04:43:06.858Z,38.50
2022-12-11T04:44:06.829Z,38.50
2022-12-11T04:45:07.608Z,38.40
2022-12-11T04:46:07.182Z,38.60
2022-12-11T04:47:07.093Z,38.50
2022-12-11T04:48:06.801Z,38.50
2022-12-11T04:49:06.789Z,38.50
2022-12-11T04:50:06.765Z,38.50
2022-12-11T04:51:06.808Z,38.60
2022-12-11T04:52:06.760Z,38.60
2022-12-11T04:53:06.747Z,38.60
2022-12-11T04:54:06.832Z,38.50
2022-12-11T04:55:06.763Z,38.50
2022-12-11T04:56:06.700Z,38.60
2022-12-11T04:57:06.766Z,38.60
2022-12-11T04:58:06.693Z,38.60
2022-12-11T04:59:06.713Z,38.50
2022-12-11T05:00:06.680Z,38.50
2022-12-11T05:01:06.681Z,38.60
2022-12-11T05:02:06.727Z,38.60
2022-12-11T05:03:06.721Z,38.60
2022-12-11T05:04:06.629Z,38.50
2022-12-11T05:05:06.787Z,38.60
2022-12-11T05:06:06.634Z,38.50
2022-12-11T05:07:06.634Z,38.60
2022-12-11T05:08:06.615Z,38.50
2022-12-11T05:09:06.677Z,38.50
2022-12-11T05:10:06.574Z,38.60
2022-12-11T05:11:06.580Z,38.50
2022-12-11T05:12:06.541Z,38.60
2022-12-11T05:13:06.568Z,38.50
2022-12-11T05:14:06.586Z,38.60
2022-12-11T05:15:06.604Z,38.60
2022-12-11T05:16:06.496Z,38.60
2022-12-11T05:17:06.521Z,38.50
2022-12-11T05:18:06.468Z,38.60
2022-12-11T05:19:06.535Z,38.60
2022-12-11T05:20:06.456Z,38.60
2022-12-11T05:21:06.441Z,38.60
2022-12-11T05:22:06.473Z,38.70
2022-12-11T05:23:06.427Z,38.60
2022-12-11T05:24:06.410Z,38.60
2022-12-11T05:25:06.452Z,38.50
2022-12-11T05:26:06.381Z,38.60
2022-12-11T05:27:06.418Z,38.50
2022-12-11T05:28:06.517Z,38.50
2022-12-11T05:29:06.365Z,38.60
2022-12-11T05:30:06.357Z,38.60
2022-12-11T05:31:06.390Z,38.60
2022-12-11T05:32:06.306Z,38.40
2022-12-11T05:33:06.345Z,38.50
2022-12-11T05:34:06.286Z,38.60
2022-12-11T05:35:06.321Z,38.50
2022-12-11T05:36:06.448Z,38.50
2022-12-11T05:37:06.315Z,38.50
2022-12-11T05:38:06.233Z,38.60
2022-12-11T05:39:06.286Z,38.60
2022-12-11T05:40:06.260Z,38.50
2022-12-11T05:41:06.447Z,38.50
2022-12-11T05:42:06.221Z,38.50
2022-12-11T05:43:06.236Z,38.50
2022-12-11T05:44:06.258Z,38.40
2022-12-11T05:45:06.247Z,38.50
2022-12-11T05:46:06.151Z,38.50
2022-12-11T05:47:06.201Z,38.50
2022-12-11T05:48:06.175Z,38.50
2022-12-11T05:49:06.618Z,38.40
2022-12-11T05:50:06.252Z,38.50
2022-12-11T05:51:06.174Z,38.60
2022-12-11T05:52:06.083Z,38.50
2022-12-11T05:53:06.136Z,38.50
2022-12-11T05:54:06.090Z,38.50
2022-12-11T05:55:06.172Z,38.50
2022-12-11T05:56:06.130Z,38.50
2022-12-11T05:57:06.026Z,38.50
2022-12-11T05:58:06.042Z,38.50
2022-12-11T05:59:06.063Z,38.40
2022-12-11T06:00:06.155Z,38.50
2022-12-11T06:01:06.054Z,38.50
2022-12-11T06:02:06.303Z,38.50
2022-12-11T06:03:06.092Z,38.40
2022-12-11T06:04:05.953Z,38.50
2022-12-11T06:05:06.034Z,38.50
2022-12-11T06:06:05.946Z,38.50
2022-12-11T06:07:06.018Z,38.50
2022-12-11T06:08:05.971Z,38.40
2022-12-11T06:09:05.977Z,38.40
2022-12-11T06:10:05.902Z,38.60
2022-12-11T06:11:05.941Z,38.50
2022-12-11T06:12:05.923Z,38.50
2022-12-11T06:13:05.881Z,38.50
2022-12-11T06:14:05.959Z,38.50
2022-12-11T06:15:05.855Z,38.40
2022-12-11T06:16:05.901Z,38.50
2022-12-11T06:17:05.871Z,38.40
2022-12-11T06:18:06.099Z,38.60
2022-12-11T06:19:05.953Z,38.50
2022-12-11T06:20:06.399Z,38.50
2022-12-11T06:21:05.806Z,38.50
2022-12-11T06:22:05.784Z,38.60
2022-12-11T06:23:05.791Z,38.60
2022-12-11T06:24:05.784Z,38.50
2022-12-11T06:25:05.846Z,38.60
2022-12-11T06:26:05.792Z,38.60
2022-12-11T06:27:05.698Z,38.50
2022-12-11T06:28:05.747Z,38.50
2022-12-11T06:29:09.264Z,38.50
2022-12-11T06:30:05.710Z,38.50
2022-12-11T06:31:05.721Z,38.50
2022-12-11T06:32:05.760Z,38.60
2022-12-11T06:33:05.645Z,38.50
2022-12-11T06:34:05.678Z,38.50
2022-12-11T06:35:05.633Z,38.60
2022-12-11T06:36:05.650Z,38.60
2022-12-11T06:37:05.668Z,38.50
2022-12-11T06:38:05.626Z,38.60
2022-12-11T06:39:05.600Z,38.60
2022-12-11T06:40:05.727Z,38.60
2022-12-11T06:41:05.584Z,38.50
2022-12-11T06:42:05.581Z,38.50
2022-12-11T06:43:05.555Z,38.50
2022-12-11T06:44:05.572Z,38.50
2022-12-11T06:45:05.506Z,38.50
2022-12-11T06:46:05.654Z,38.60
2022-12-11T06:47:05.501Z,38.50
2022-12-11T06:48:05.509Z,38.50
2022-12-11T06:49:05.490Z,38.60
2022-12-11T06:50:05.524Z,38.50
2022-12-11T06:51:05.482Z,38.60
2022-12-11T06:52:05.490Z,38.60
2022-12-11T06:53:05.421Z,38.50
2022-12-11T06:54:05.465Z,38.60
2022-12-11T06:55:05.425Z,38.60
2022-12-11T06:56:05.444Z,38.62
2022-12-11T06:57:05.411Z,38.52
2022-12-11T06:58:05.421Z,38.70
2022-12-11T06:59:07.469Z,38.60
2022-12-11T07:00:05.397Z,38.60
2022-12-11T07:01:05.396Z,38.62
2022-12-11T07:02:05.450Z,38.52
2022-12-11T07:03:05.442Z,38.60
2022-12-11T07:04:05.364Z,38.60
2022-12-11T07:05:05.325Z,38.60
2022-12-11T07:06:05.548Z,38.60
2022-12-11T07:07:05.410Z,38.60
2022-12-11T07:08:05.328Z,38.60
2022-12-11T07:09:05.908Z,38.60
2022-12-11T07:10:08.320Z,38.50
2022-12-11T07:11:05.251Z,38.60
2022-12-11T07:12:05.297Z,38.60
2022-12-11T07:13:05.205Z,38.50
2022-12-11T07:14:05.232Z,38.60
2022-12-11T07:15:05.228Z,38.50
2022-12-11T07:16:05.466Z,38.62
2022-12-11T07:17:05.159Z,38.70
2022-12-11T07:18:05.276Z,38.60
2022-12-11T07:19:05.139Z,38.50
2022-12-11T07:20:05.192Z,38.60
2022-12-11T07:21:05.140Z,38.50
2022-12-11T07:22:05.167Z,38.60
2022-12-11T07:23:05.215Z,38.52
2022-12-11T07:24:05.136Z,38.62
2022-12-11T07:25:05.076Z,38.52
2022-12-11T07:26:05.119Z,38.62
2022-12-11T07:27:05.054Z,38.62
2022-12-11T07:28:05.084Z,38.62
2022-12-11T07:29:05.058Z,38.62
2022-12-11T07:30:05.050Z,38.62
2022-12-11T07:31:05.038Z,38.71
2022-12-11T07:32:05.289Z,38.62
2022-12-11T07:33:05.102Z,38.62
2022-12-11T07:34:05.244Z,38.62
2022-12-11T07:35:05.073Z,38.62
2022-12-11T07:36:04.991Z,38.60
2022-12-11T07:37:05.091Z,38.52
2022-12-11T07:38:05.102Z,38.52
2022-12-11T07:39:04.984Z,38.52
2022-12-11T07:40:04.966Z,38.62
2022-12-11T07:41:04.930Z,38.50
2022-12-11T07:42:04.992Z,38.60
2022-12-11T07:43:04.902Z,38.62
2022-12-11T07:44:04.893Z,38.60
2022-12-11T07:45:04.991Z,38.52
2022-12-11T07:46:05.194Z,38.62
2022-12-11T07:47:04.874Z,38.62
2022-12-11T07:48:05.004Z,38.52
2022-12-11T07:49:04.835Z,38.50
2022-12-11T07:50:04.832Z,38.52
2022-12-11T07:51:04.836Z,38.62
2022-12-11T07:52:04.867Z,38.62
2022-12-11T07:53:04.772Z,38.62
2022-12-11T07:54:05.021Z,38.81
2022-12-11T07:55:04.750Z,39.21
2022-12-11T07:56:04.781Z,38.42
2022-12-11T07:57:06.256Z,36.43
2022-12-11T07:58:04.743Z,35.64
2022-12-11T07:59:04.733Z,38.62
2022-12-11T08:00:04.809Z,38.92
2022-12-11T08:01:04.774Z,39.01
2022-12-11T08:02:04.741Z,39.21
2022-12-11T08:03:04.691Z,39.21
2022-12-11T08:04:04.709Z,39.21
2022-12-11T08:05:04.647Z,39.31
2022-12-11T08:06:04.706Z,39.31
2022-12-11T08:07:04.637Z,39.31
2022-12-11T08:08:04.747Z,39.41
2022-12-11T08:09:04.646Z,39.31
2022-12-11T08:10:04.625Z,39.41
2022-12-11T08:11:04.642Z,39.31
2022-12-11T08:12:04.697Z,39.41
2022-12-11T08:13:04.550Z,39.41
2022-12-11T08:14:04.669Z,39.51
2022-12-11T08:15:04.570Z,39.51
2022-12-11T08:16:04.587Z,39.41
2022-12-11T08:17:04.590Z,39.41
2022-12-11T08:18:04.560Z,39.21
2022-12-11T08:19:04.522Z,39.41
2022-12-11T08:20:04.502Z,39.41
2022-12-11T08:21:04.493Z,39.41
2022-12-11T08:22:04.498Z,39.41
2022-12-11T08:23:04.481Z,39.81
2022-12-11T08:24:04.499Z,40.11
2022-12-11T08:25:04.419Z,40.50
2022-12-11T08:26:04.466Z,40.80
2022-12-11T08:27:04.428Z,40.70
2022-12-11T08:28:04.433Z,40.80
2022-12-11T08:29:04.445Z,41.00
2022-12-11T08:30:04.395Z,40.90
2022-12-11T08:31:04.419Z,41.09
2022-12-11T08:32:10.543Z,41.09
2022-12-11T08:33:04.352Z,41.09
2022-12-11T08:34:04.385Z,41.09
2022-12-11T08:35:04.350Z,41.00
2022-12-11T08:36:04.333Z,41.00
2022-12-11T08:37:04.372Z,41.09
2022-12-11T08:38:04.397Z,41.09
2022-12-11T08:39:04.302Z,41.09
2022-12-11T08:40:04.319Z,41.09
2022-12-11T08:41:04.249Z,41.09
2022-12-11T08:42:04.340Z,41.09
2022-12-11T08:43:04.360Z,41.20
2022-12-11T08:44:05.949Z,41.09
2022-12-11T08:45:04.243Z,41.00
2022-12-11T08:46:04.330Z,41.09
2022-12-11T08:47:04.210Z,41.00
2022-12-11T08:48:04.355Z,41.09
2022-12-11T08:49:04.351Z,41.09
2022-12-11T08:50:04.210Z,41.09
2022-12-11T08:51:04.180Z,41.08
2022-12-11T08:52:04.284Z,41.09
2022-12-11T08:53:04.118Z,41.08
2022-12-11T08:54:04.245Z,41.09
2022-12-11T08:55:04.108Z,41.08
2022-12-11T08:56:04.185Z,41.17
2022-12-11T08:57:04.182Z,41.08
2022-12-11T08:58:04.222Z,41.17
2022-12-11T08:59:04.151Z,41.09
2022-12-11T09:00:04.211Z,41.39
2022-12-11T09:01:04.081Z,41.20
2022-12-11T09:02:04.155Z,41.09
2022-12-11T09:03:08.411Z,41.09
2022-12-11T09:04:04.056Z,41.09
2022-12-11T09:05:04.014Z,41.17
2022-12-11T09:06:04.032Z,41.17
2022-12-11T09:07:04.063Z,41.09
2022-12-11T09:08:04.084Z,41.00
2022-12-11T09:09:03.977Z,40.80
2022-12-11T09:10:03.970Z,40.78
2022-12-11T09:11:03.976Z,40.50
2022-12-11T09:12:03.995Z,40.41
2022-12-11T09:13:03.981Z,40.01
2022-12-11T09:14:07.705Z,40.09
2022-12-11T09:15:03.877Z,40.11
2022-12-11T09:16:03.933Z,40.01
2022-12-11T09:17:03.894Z,39.90
2022-12-11T09:18:03.877Z,39.81
2022-12-11T09:19:04.546Z,39.71
2022-12-11T09:20:03.883Z,39.71
2022-12-11T09:21:03.871Z,39.59
2022-12-11T09:22:03.865Z,39.51
2022-12-11T09:23:03.823Z,39.49
2022-12-11T09:24:04.175Z,39.39
2022-12-11T09:25:03.778Z,39.11
2022-12-11T09:26:03.914Z,38.92
2022-12-11T09:27:03.780Z,38.92
2022-12-11T09:28:03.766Z,38.79
2022-12-11T09:29:03.755Z,38.92
2022-12-11T09:30:03.758Z,38.71
2022-12-11T09:31:03.790Z,38.71
2022-12-11T09:32:03.768Z,38.52
2022-12-11T09:33:03.695Z,38.40
2022-12-11T09:34:03.747Z,38.32
2022-12-11T09:35:03.723Z,38.32
2022-12-11T09:36:03.691Z,38.22
2022-12-11T09:37:03.673Z,38.32
2022-12-11T09:38:03.825Z,38.42
2022-12-11T09:39:03.674Z,37.30
2022-12-11T09:40:07.617Z,37.81
2022-12-11T09:41:03.608Z,37.90
2022-12-11T09:42:03.687Z,37.90
2022-12-11T09:43:03.630Z,38.30
2022-12-11T09:44:03.605Z,37.90
2022-12-11T09:45:03.709Z,38.00
2022-12-11T09:46:03.664Z,38.10
2022-12-11T09:47:03.620Z,38.10
2022-12-11T09:48:03.693Z,37.90
2022-12-11T09:49:03.532Z,37.81
2022-12-11T09:50:03.688Z,37.90
2022-12-11T09:51:03.495Z,37.81
2022-12-11T09:52:03.566Z,37.81
2022-12-11T09:53:03.499Z,37.70
2022-12-11T09:54:03.634Z,37.81
2022-12-11T09:55:03.465Z,37.30
2022-12-11T09:56:03.610Z,37.60
2022-12-11T09:57:03.480Z,37.30
2022-12-11T09:58:03.487Z,37.41
2022-12-11T09:59:03.446Z,37.41
2022-12-11T10:00:05.544Z,37.60
2022-12-11T10:01:03.568Z,37.60
2022-12-11T10:02:03.434Z,37.21
2022-12-11T10:03:03.380Z,37.11
2022-12-11T10:04:03.406Z,37.01
2022-12-11T10:05:03.434Z,37.41
2022-12-11T10:06:05.145Z,37.41
2022-12-11T10:07:03.351Z,37.51
2022-12-11T10:08:03.402Z,37.41
2022-12-11T10:09:03.297Z,37.41
2022-12-11T10:10:03.333Z,37.41
2022-12-11T10:11:03.502Z,37.41
2022-12-11T10:12:03.383Z,37.60
2022-12-11T10:13:03.331Z,37.81
2022-12-11T10:14:03.329Z,37.21
2022-12-11T10:15:03.303Z,37.30
2022-12-11T10:16:03.309Z,37.41
2022-12-11T10:17:03.241Z,37.21
2022-12-11T10:18:05.275Z,37.01
2022-12-11T10:19:03.320Z,37.41
2022-12-11T10:20:03.259Z,37.30
2022-12-11T10:21:03.169Z,37.70
2022-12-11T10:22:03.213Z,37.41
2022-12-11T10:23:03.145Z,37.41
2022-12-11T10:24:03.186Z,37.21
2022-12-11T10:25:11.805Z,37.41
2022-12-11T10:26:03.180Z,37.21
2022-12-11T10:27:03.105Z,37.30
2022-12-11T10:28:03.121Z,37.41
2022-12-11T10:29:03.139Z,37.41
2022-12-11T10:30:03.103Z,37.81
2022-12-11T10:31:03.118Z,37.60
2022-12-11T10:32:03.160Z,37.41
2022-12-11T10:33:03.135Z,37.60
2022-12-11T10:34:03.146Z,37.70
2022-12-11T10:35:03.053Z,37.69
2022-12-11T10:36:03.046Z,37.49
2022-12-11T10:37:03.027Z,37.69
2022-12-11T10:38:03.028Z,37.59
2022-12-11T10:39:03.001Z,38.09
2022-12-11T10:40:03.165Z,37.49
2022-12-11T10:41:02.950Z,37.59
2022-12-11T10:42:03.118Z,37.69
2022-12-11T10:43:03.019Z,37.59
2022-12-11T10:44:02.924Z,37.69
2022-12-11T10:45:02.980Z,37.49
2022-12-11T10:46:03.535Z,37.59
2022-12-11T10:47:02.952Z,37.49
2022-12-11T10:48:02.914Z,37.49
2022-12-11T10:49:02.904Z,37.49
2022-12-11T10:50:02.884Z,37.88
2022-12-11T10:51:02.875Z,37.39
2022-12-11T10:52:02.835Z,37.79
2022-12-11T10:53:02.936Z,36.99
2022-12-11T10:54:07.122Z,37.59
2022-12-11T10:55:02.858Z,36.99
2022-12-11T10:56:02.819Z,36.99
2022-12-11T10:57:02.822Z,36.99
2022-12-11T10:58:02.771Z,37.19
2022-12-11T10:59:02.823Z,36.90
2022-12-11T11:00:02.868Z,36.79
2022-12-11T11:01:02.787Z,36.50
2022-12-11T11:02:02.866Z,36.90
2022-12-11T11:03:02.868Z,36.69
2022-12-11T11:04:02.724Z,36.79
2022-12-11T11:05:02.775Z,36.90
2022-12-11T11:06:02.703Z,36.60
2022-12-11T11:07:02.733Z,36.69
2022-12-11T11:08:02.743Z,36.79
2022-12-11T11:09:02.687Z,36.60
2022-12-11T11:10:02.689Z,36.50
2022-12-11T11:11:02.761Z,36.60
2022-12-11T11:12:07.655Z,36.69
2022-12-11T11:13:02.816Z,36.60
2022-12-11T11:14:02.653Z,36.69
2022-12-11T11:15:02.616Z,36.60
2022-12-11T11:16:02.666Z,36.60
2022-12-11T11:17:02.681Z,36.40
2022-12-11T11:18:02.662Z,36.50
2022-12-11T11:19:02.612Z,36.50
2022-12-11T11:20:02.556Z,36.50
2022-12-11T11:21:02.601Z,36.50
2022-12-11T11:22:02.545Z,36.60
2022-12-11T11:23:02.541Z,36.20
2022-12-11T11:24:02.516Z,36.60
2022-12-11T11:25:02.545Z,36.69
2022-12-11T11:26:02.508Z,36.30
2022-12-11T11:27:13.070Z,36.60
2022-12-11T11:28:02.485Z,36.50
2022-12-11T11:29:02.483Z,37.09
2022-12-11T11:30:02.541Z,36.90
2022-12-11T11:31:02.636Z,36.90
2022-12-11T11:32:02.431Z,37.59
2022-12-11T11:33:02.423Z,37.49
2022-12-11T11:34:02.442Z,37.29
2022-12-11T11:35:02.477Z,37.39
2022-12-11T11:36:02.372Z,37.49
2022-12-11T11:37:02.405Z,37.30
2022-12-11T11:38:02.341Z,37.01
2022-12-11T11:39:02.398Z,37.21
2022-12-11T11:40:02.351Z,37.30
2022-12-11T11:41:06.525Z,36.91
2022-12-11T11:42:02.343Z,37.01
2022-12-11T11:43:02.309Z,36.61
2022-12-11T11:44:02.337Z,37.11
2022-12-11T11:45:02.326Z,36.61
2022-12-11T11:46:03.045Z,37.11
2022-12-11T11:47:02.432Z,36.91
2022-12-11T11:48:05.078Z,36.91
2022-12-11T11:49:02.359Z,36.71
2022-12-11T11:50:02.256Z,37.11
2022-12-11T11:51:02.285Z,37.11
2022-12-11T11:52:02.963Z,37.41
2022-12-11T11:53:02.240Z,37.30
2022-12-11T11:54:02.191Z,37.41
2022-12-11T11:55:02.465Z,37.41
2022-12-11T11:56:02.171Z,37.11
2022-12-11T11:57:02.983Z,37.21
2022-12-11T11:58:02.160Z,36.91
2022-12-11T11:59:02.234Z,37.01
2022-12-11T12:00:02.120Z,36.81
2022-12-11T12:01:02.154Z,36.81
2022-12-11T12:02:02.109Z,36.61
2022-12-11T12:03:02.163Z,36.32
2022-12-11T12:04:02.050Z,36.41
2022-12-11T12:05:02.097Z,36.41
2022-12-11T12:06:02.051Z,36.22
2022-12-11T12:07:02.080Z,36.41
2022-12-11T12:08:02.095Z,36.61
2022-12-11T12:09:02.026Z,36.61
2022-12-11T12:10:02.057Z,36.41
2022-12-11T12:11:02.010Z,36.51
2022-12-11T12:12:01.971Z,36.51
2022-12-11T12:13:02.172Z,36.51
2022-12-11T12:14:01.957Z,36.32
2022-12-11T12:15:01.995Z,36.71
2022-12-11T12:16:02.059Z,36.51
2022-12-11T12:17:01.997Z,36.61
2022-12-11T12:18:01.921Z,36.51
2022-12-11T12:19:01.973Z,36.41
2022-12-11T12:20:01.947Z,37.01
2022-12-11T12:21:01.969Z,36.51
2022-12-11T12:22:01.894Z,36.51
2022-12-11T12:23:01.978Z,36.61
2022-12-11T12:24:01.837Z,36.32
2022-12-11T12:25:01.880Z,36.41
2022-12-11T12:26:01.827Z,36.41
2022-12-11T12:27:01.884Z,36.51
2022-12-11T12:28:02.829Z,37.41
2022-12-11T12:29:01.858Z,37.51
2022-12-11T12:30:01.819Z,37.51
2022-12-11T12:31:01.796Z,37.70
2022-12-11T12:32:01.821Z,37.90
2022-12-11T12:33:01.809Z,37.81
2022-12-11T12:34:01.769Z,38.10
2022-12-11T12:35:01.760Z,38.70
2022-12-11T12:36:06.574Z,39.00
2022-12-11T12:37:01.853Z,39.29
2022-12-11T12:38:01.685Z,39.29
2022-12-11T12:39:01.729Z,39.39
2022-12-11T12:40:01.696Z,39.59
2022-12-11T12:41:01.680Z,39.69
2022-12-11T12:42:07.206Z,39.79
2022-12-11T12:43:01.663Z,39.79
2022-12-11T12:44:01.652Z,39.98
2022-12-11T12:45:01.726Z,40.09
2022-12-11T12:46:01.709Z,40.09
2022-12-11T12:47:01.651Z,39.98
2022-12-11T12:48:01.610Z,40.19
2022-12-11T12:49:01.728Z,40.19
2022-12-11T12:50:01.589Z,40.58
2022-12-11T12:51:01.579Z,40.38
2022-12-11T12:52:01.570Z,40.38